Keneurgench, Turkmenistan

5:32 PM TMT on October 02, 2014 (GMT +0500)
Nukus / Karakalpakstan | Change Station
CLOSE
Current Station
Airport
Location: Nukus / Karakalpakstan,
Elevation: 253 ft
Nearby Weather Stations

Elev 253 ft 42.49 °N, 59.62 °E | Updated 32 minutes ago

Clear
Clear
66 °F
Feels Like 66 °F
N
4
Wind Variable Wind from SE

Today
High -- | Low -- °F
--% Chance of Precip.
Yesterday
High -- | Low -- °F
Precip. -- in
7:01 AM 6:43 PM
First Quarter, 58% visible
Pressure 30.09 in
Visibility -9999.0 miles
Clouds
Dew Point 37 °F
Humidity 35%
Rainfall 0.00 in
Snow Depth Not available.
UV Not available.
Pollen Not available.
Air Quality Not available.
Flu Activity Not available.
METAR UTNN 011200Z 14002MPS 100V160 CAVOK 19/03 Q1019 R33/CLRD60 NOSIG

More Conditions Fewer Conditions

Pressure 30.09 in
Visibility -9999.0 miles
Clouds
Dew Point 37 °F
Humidity 35%
Rainfall 0.00 in
Snow Depth Not available.
UV Not available.
Pollen Not available.
Air Quality Not available.
Flu Activity Not available.
METAR UTNN 011200Z 14002MPS 100V160 CAVOK 19/03 Q1019 R33/CLRD60 NOSIG

More Conditions Fewer Conditions

10-Day Weather Forecast

Almanac

Astronomy

Oct. 02, 2014 Rise Set
Actual Time 7:01 AM TMT 6:43 PM TMT
Civil Twilight 6:33 AM TMT 7:11 PM TMT
Nautical Twilight 6:00 AM TMT 7:44 PM TMT
Astronomical Twilight 5:27 AM TMT 8:17 PM TMT
Moon 2:35 PM TMT No Moon Set
Length of Visible Light 12h 38m
Length of Day
11h 42m
Tomorrow will be 2m 48s shorter.
First Quarter, 58% of the Moon is Illuminated
Today
First Quarter
Oct 8
Full
Oct 15
Last Quarter
Oct 23
New
Oct 30
First Quarter

Yesterday's Extremes

Country Highs Country Lows

Community

WunderPhotos

Upload Photos

1,758,223 photos uploaded!

WunderBlogs® & News

Nearby

Snow Depth

Not available.

Earthquake Activity

City Distance Mag. Time & Date
No recent earthquake activity has been reported nearby.
Minimum magnitude displayed is 2.5.

Coastal Water Temperatures

Place Temperature
No Stations Reporting

Nearby Weather Stations